Atascosa, Texas
Current Conditions -  °F | °C
As of 2:15 PM on Wednesday 28 Jan 2015 (Local Time) from KCVB Reporting Station
Clear Clear  
Wind Chill: 79°   Ceiling: Unl
Heat Index: 79°   Visibility: 7mi
Dew Point: 40°   Wind: 9mph
Humidity: 25%   Direction: 180°S
Pressure: 30.13"   Gusts: NA
Location:  29.28°N, 98.74°W
Report Text: KCVB 282015Z AUTO 18008KT 7SM CLR 26/04 A3013 RMK AO2 T02600042
Loading
Personal Weather Stations






























Interactive Weather Map New forecast layout! Learn more

10-Day Weather Forecast

Advertisements
Track Severe Weather on mobile